sensor_id;sensor_type;location;lat;lon;timestamp;pressure;altitude;pressure_sealevel;temperature
50206;BMP280;36098;48.390;10.856;2022-10-22T00:01:14;95811.28;;;24.16
50206;BMP280;36098;48.390;10.856;2022-10-22T00:03:39;95814.75;;;24.11
50206;BMP280;36098;48.390;10.856;2022-10-22T00:06:05;95820.03;;;24.11
50206;BMP280;36098;48.390;10.856;2022-10-22T00:08:30;95814.25;;;24.09
50206;BMP280;36098;48.390;10.856;2022-10-22T00:10:56;95820.03;;;24.11
50206;BMP280;36098;48.390;10.856;2022-10-22T00:13:21;95828.72;;;24.12
50206;BMP280;36098;48.390;10.856;2022-10-22T00:15:47;95822.16;;;24.09
50206;BMP280;36098;48.390;10.856;2022-10-22T00:18:13;95830.00;;;24.14
50206;BMP280;36098;48.390;10.856;2022-10-22T00:20:38;95842.19;;;24.10
50206;BMP280;36098;48.390;10.856;2022-10-22T00:23:03;95831.13;;;24.08
50206;BMP280;36098;48.390;10.856;2022-10-22T00:25:29;95830.56;;;24.11
50206;BMP280;36098;48.390;10.856;2022-10-22T00:27:55;95835.28;;;24.14
50206;BMP280;36098;48.390;10.856;2022-10-22T00:30:20;95843.81;;;24.06
50206;BMP280;36098;48.390;10.856;2022-10-22T00:32:45;95846.19;;;24.08
50206;BMP280;36098;48.390;10.856;2022-10-22T00:35:10;95854.94;;;24.03
50206;BMP280;36098;48.390;10.856;2022-10-22T00:37:36;95853.38;;;24.02
50206;BMP280;36098;48.390;10.856;2022-10-22T00:40:02;95853.03;;;24.09
50206;BMP280;36098;48.390;10.856;2022-10-22T00:42:28;95854.38;;;24.06
50206;BMP280;36098;48.390;10.856;2022-10-22T00:47:29;95850.09;;;24.10
50206;BMP280;36098;48.390;10.856;2022-10-22T00:49:56;95837.47;;;24.07
50206;BMP280;36098;48.390;10.856;2022-10-22T00:52:23;95841.44;;;24.05
50206;BMP280;36098;48.390;10.856;2022-10-22T00:54:49;95838.09;;;23.99
50206;BMP280;36098;48.390;10.856;2022-10-22T00:57:17;95834.41;;;24.00
50206;BMP280;36098;48.390;10.856;2022-10-22T00:59:42;95842.59;;;23.99
50206;BMP280;36098;48.390;10.856;2022-10-22T01:02:07;95847.53;;;24.05
50206;BMP280;36098;48.390;10.856;2022-10-22T01:04:33;95852.53;;;24.07
50206;BMP280;36098;48.390;10.856;2022-10-22T01:06:58;95854.94;;;24.03
50206;BMP280;36098;48.390;10.856;2022-10-22T01:09:37;95864.41;;;24.04
50206;BMP280;36098;48.390;10.856;2022-10-22T01:12:53;95862.91;;;23.98
50206;BMP280;36098;48.390;10.856;2022-10-22T01:18:22;95858.72;;;23.92
50206;BMP280;36098;48.390;10.856;2022-10-22T01:20:59;95843.94;;;23.96
50206;BMP280;36098;48.390;10.856;2022-10-22T01:26:28;95833.94;;;23.93
50206;BMP280;36098;48.390;10.856;2022-10-22T01:28:59;95830.28;;;23.89
50206;BMP280;36098;48.390;10.856;2022-10-22T01:31:29;95824.94;;;23.94
50206;BMP280;36098;48.390;10.856;2022-10-22T01:33:58;95828.44;;;23.90
50206;BMP280;36098;48.390;10.856;2022-10-22T01:36:24;95843.41;;;23.94
50206;BMP280;36098;48.390;10.856;2022-10-22T01:38:52;95846.16;;;23.84
50206;BMP280;36098;48.390;10.856;2022-10-22T01:41:17;95846.84;;;23.95
50206;BMP280;36098;48.390;10.856;2022-10-22T01:43:43;95861.88;;;23.94
50206;BMP280;36098;48.390;10.856;2022-10-22T01:46:09;95861.16;;;23.89
50206;BMP280;36098;48.390;10.856;2022-10-22T01:53:56;95883.31;;;23.88
50206;BMP280;36098;48.390;10.856;2022-10-22T02:04:49;95880.69;;;23.88
50206;BMP280;36098;48.390;10.856;2022-10-22T02:07:20;95880.16;;;23.86
50206;BMP280;36098;48.390;10.856;2022-10-22T02:09:48;95882.56;;;23.82
50206;BMP280;36098;48.390;10.856;2022-10-22T02:12:16;95882.81;;;23.81
50206;BMP280;36098;48.390;10.856;2022-10-22T02:14:43;95882.28;;;23.84
50206;BMP280;36098;48.390;10.856;2022-10-22T02:17:14;95886.22;;;23.86
50206;BMP280;36098;48.390;10.856;2022-10-22T02:19:47;95893.34;;;23.81
50206;BMP280;36098;48.390;10.856;2022-10-22T02:22:15;95899.16;;;23.88
50206;BMP280;36098;48.390;10.856;2022-10-22T02:24:40;95887.31;;;23.80
50206;BMP280;36098;48.390;10.856;2022-10-22T02:27:19;95884.94;;;23.79
50206;BMP280;36098;48.390;10.856;2022-10-22T02:32:23;95888.41;;;23.74
50206;BMP280;36098;48.390;10.856;2022-10-22T02:34:51;95886.50;;;23.80
50206;BMP280;36098;48.390;10.856;2022-10-22T02:37:18;95878.91;;;23.78
50206;BMP280;36098;48.390;10.856;2022-10-22T02:39:44;95870.47;;;23.76
50206;BMP280;36098;48.390;10.856;2022-10-22T02:42:10;95874.13;;;23.80
50206;BMP280;36098;48.390;10.856;2022-10-22T02:44:36;95865.75;;;23.73
50206;BMP280;36098;48.390;10.856;2022-10-22T02:47:02;95863.59;;;23.75
50206;BMP280;36098;48.390;10.856;2022-10-22T02:49:28;95871.00;;;23.78
50206;BMP280;36098;48.390;10.856;2022-10-22T02:51:53;95876.53;;;23.77
50206;BMP280;36098;48.390;10.856;2022-10-22T02:54:19;95875.97;;;23.80
50206;BMP280;36098;48.390;10.856;2022-10-22T02:56:44;95881.81;;;23.77
50206;BMP280;36098;48.390;10.856;2022-10-22T02:59:09;95884.50;;;23.72
50206;BMP280;36098;48.390;10.856;2022-10-22T03:01:34;95876.38;;;23.63
50206;BMP280;36098;48.390;10.856;2022-10-22T03:04:00;95871.69;;;23.60
50206;BMP280;36098;48.390;10.856;2022-10-22T03:06:25;95883.56;;;23.58
50206;BMP280;36098;48.390;10.856;2022-10-22T03:08:50;95895.91;;;23.62
50206;BMP280;36098;48.390;10.856;2022-10-22T03:11:16;95901.94;;;23.68
50206;BMP280;36098;48.390;10.856;2022-10-22T03:13:41;95909.84;;;23.63
50206;BMP280;36098;48.390;10.856;2022-10-22T03:16:06;95894.03;;;23.68
50206;BMP280;36098;48.390;10.856;2022-10-22T03:18:32;95899.50;;;23.71
50206;BMP280;36098;48.390;10.856;2022-10-22T03:21:09;95909.59;;;23.64
50206;BMP280;36098;48.390;10.856;2022-10-22T03:23:36;95909.91;;;23.58
50206;BMP280;36098;48.390;10.856;2022-10-22T03:26:03;95911.72;;;23.62
50206;BMP280;36098;48.390;10.856;2022-10-22T03:28:28;95920.44;;;23.58
50206;BMP280;36098;48.390;10.856;2022-10-22T03:30:53;95918.56;;;23.63
50206;BMP280;36098;48.390;10.856;2022-10-22T03:33:19;95914.88;;;23.64
50206;BMP280;36098;48.390;10.856;2022-10-22T03:35:45;95914.06;;;23.64
50206;BMP280;36098;48.390;10.856;2022-10-22T03:38:12;95910.38;;;23.65
50206;BMP280;36098;48.390;10.856;2022-10-22T03:40:38;95920.91;;;23.65
50206;BMP280;36098;48.390;10.856;2022-10-22T03:43:04;95917.00;;;23.62
50206;BMP280;36098;48.390;10.856;2022-10-22T03:45:29;95903.31;;;23.60
50206;BMP280;36098;48.390;10.856;2022-10-22T03:47:54;95903.88;;;23.57
50206;BMP280;36098;48.390;10.856;2022-10-22T03:50:19;95912.59;;;23.53
50206;BMP280;36098;48.390;10.856;2022-10-22T03:52:45;95916.00;;;23.53
50206;BMP280;36098;48.390;10.856;2022-10-22T03:55:10;95921.25;;;23.58
50206;BMP280;36098;48.390;10.856;2022-10-22T03:57:35;95914.34;;;23.62
50206;BMP280;36098;48.390;10.856;2022-10-22T04:00:02;95907.22;;;23.63
50206;BMP280;36098;48.390;10.856;2022-10-22T04:02:27;95911.97;;;23.61
50206;BMP280;36098;48.390;10.856;2022-10-22T04:04:53;95917.00;;;23.62
50206;BMP280;36098;48.390;10.856;2022-10-22T04:07:18;95934.94;;;23.60
50206;BMP280;36098;48.390;10.856;2022-10-22T04:09:43;95929.94;;;23.59
50206;BMP280;36098;48.390;10.856;2022-10-22T04:12:08;95938.84;;;23.63
50206;BMP280;36098;48.390;10.856;2022-10-22T04:14:34;95942.28;;;23.63
50206;BMP280;36098;48.390;10.856;2022-10-22T04:16:59;95946.81;;;23.58
50206;BMP280;36098;48.390;10.856;2022-10-22T04:19:25;95963.94;;;23.60
50206;BMP280;36098;48.390;10.856;2022-10-22T04:21:50;95966.56;;;23.60
50206;BMP280;36098;48.390;10.856;2022-10-22T04:24:15;95970.25;;;23.59
50206;BMP280;36098;48.390;10.856;2022-10-22T04:26:41;95970.78;;;23.56
50206;BMP280;36098;48.390;10.856;2022-10-22T04:29:06;95963.69;;;23.57
50206;BMP280;36098;48.390;10.856;2022-10-22T04:31:32;95967.38;;;23.56
50206;BMP280;36098;48.390;10.856;2022-10-22T04:33:59;95964.50;;;23.52
50206;BMP280;36098;48.390;10.856;2022-10-22T04:36:25;95976.66;;;23.48
50206;BMP280;36098;48.390;10.856;2022-10-22T04:38:56;95978.53;;;23.48
50206;BMP280;36098;48.390;10.856;2022-10-22T04:41:34;95968.44;;;23.55
50206;BMP280;36098;48.390;10.856;2022-10-22T04:44:00;95968.25;;;23.46
50206;BMP280;36098;48.390;10.856;2022-10-22T04:46:29;95964.28;;;23.49
50206;BMP280;36098;48.390;10.856;2022-10-22T04:48:55;95960.81;;;23.53
50206;BMP280;36098;48.390;10.856;2022-10-22T04:51:22;95974.47;;;23.55
50206;BMP280;36098;48.390;10.856;2022-10-22T04:53:48;95967.44;;;23.51
50206;BMP280;36098;48.390;10.856;2022-10-22T04:56:19;95962.16;;;23.51
50206;BMP280;36098;48.390;10.856;2022-10-22T04:58:46;95953.50;;;23.45
50206;BMP280;36098;48.390;10.856;2022-10-22T05:01:30;95960.81;;;23.53
50206;BMP280;36098;48.390;10.856;2022-10-22T05:03:58;95960.34;;;23.46
50206;BMP280;36098;48.390;10.856;2022-10-22T05:06:25;95949.31;;;23.39
50206;BMP280;36098;48.390;10.856;2022-10-22T05:08:56;95943.00;;;23.40
50206;BMP280;36098;48.390;10.856;2022-10-22T05:11:24;95947.75;;;23.38
50206;BMP280;36098;48.390;10.856;2022-10-22T05:13:50;95941.38;;;23.44
50206;BMP280;36098;48.390;10.856;2022-10-22T05:16:15;95938.44;;;23.46
50206;BMP280;36098;48.390;10.856;2022-10-22T05:18:42;95933.00;;;23.37
50206;BMP280;36098;48.390;10.856;2022-10-22T05:21:10;95920.34;;;23.34
50206;BMP280;36098;48.390;10.856;2022-10-22T05:23:36;95915.94;;;23.30
50206;BMP280;36098;48.390;10.856;2022-10-22T05:26:02;95915.63;;;23.31
50206;BMP280;36098;48.390;10.856;2022-10-22T05:28:28;95906.09;;;23.40
50206;BMP280;36098;48.390;10.856;2022-10-22T05:30:54;95902.16;;;23.38
50206;BMP280;36098;48.390;10.856;2022-10-22T05:33:20;95894.81;;;23.35
50206;BMP280;36098;48.390;10.856;2022-10-22T05:35:50;95908.47;;;23.37
50206;BMP280;36098;48.390;10.856;2022-10-22T05:38:15;95911.13;;;23.37
50206;BMP280;36098;48.390;10.856;2022-10-22T05:40:41;95907.66;;;23.41
50206;BMP280;36098;48.390;10.856;2022-10-22T05:43:06;95900.06;;;23.35
50206;BMP280;36098;48.390;10.856;2022-10-22T05:45:38;95901.19;;;23.29
50206;BMP280;36098;48.390;10.856;2022-10-22T05:48:04;95907.25;;;23.25
50206;BMP280;36098;48.390;10.856;2022-10-22T05:50:30;95919.38;;;23.26
50206;BMP280;36098;48.390;10.856;2022-10-22T05:52:55;95918.78;;;23.33
50206;BMP280;36098;48.390;10.856;2022-10-22T05:55:21;95940.41;;;23.30
50206;BMP280;36098;48.390;10.856;2022-10-22T05:57:46;95965.19;;;23.29
50206;BMP280;36098;48.390;10.856;2022-10-22T06:00:13;95982.25;;;23.37
50206;BMP280;36098;48.390;10.856;2022-10-22T06:02:39;95963.22;;;23.45
50206;BMP280;36098;48.390;10.856;2022-10-22T06:05:04;95966.16;;;23.43
50206;BMP280;36098;48.390;10.856;2022-10-22T06:07:29;95980.72;;;23.31
50206;BMP280;36098;48.390;10.856;2022-10-22T06:09:55;95989.91;;;23.33
50206;BMP280;36098;48.390;10.856;2022-10-22T06:12:20;95985.81;;;23.13
50206;BMP280;36098;48.390;10.856;2022-10-22T06:14:45;95998.94;;;23.23
50206;BMP280;36098;48.390;10.856;2022-10-22T06:17:11;96001.06;;;23.21
50206;BMP280;36098;48.390;10.856;2022-10-22T06:19:36;96004.75;;;23.20
50206;BMP280;36098;48.390;10.856;2022-10-22T06:22:03;96005.78;;;23.24
50206;BMP280;36098;48.390;10.856;2022-10-22T06:24:28;96012.66;;;23.20
50206;BMP280;36098;48.390;10.856;2022-10-22T06:26:54;96006.06;;;23.22
50206;BMP280;36098;48.390;10.856;2022-10-22T06:29:19;96014.50;;;23.19
50206;BMP280;36098;48.390;10.856;2022-10-22T06:31:44;96012.97;;;23.13
50206;BMP280;36098;48.390;10.856;2022-10-22T06:34:11;96017.31;;;23.32
50206;BMP280;36098;48.390;10.856;2022-10-22T06:36:37;96026.81;;;23.38
50206;BMP280;36098;48.390;10.856;2022-10-22T06:39:03;96028.94;;;23.31
50206;BMP280;36098;48.390;10.856;2022-10-22T06:41:28;96033.19;;;23.23
50206;BMP280;36098;48.390;10.856;2022-10-22T06:43:54;96037.91;;;23.26
50206;BMP280;36098;48.390;10.856;2022-10-22T06:46:22;96040.03;;;23.24
50206;BMP280;36098;48.390;10.856;2022-10-22T06:48:57;96049.50;;;23.29
50206;BMP280;36098;48.390;10.856;2022-10-22T06:51:23;96038.44;;;23.27
50206;BMP280;36098;48.390;10.856;2022-10-22T06:53:48;96046.06;;;23.34
50206;BMP280;36098;48.390;10.856;2022-10-22T06:56:17;96055.78;;;23.38
50206;BMP280;36098;48.390;10.856;2022-10-22T06:58:46;96053.63;;;23.45
50206;BMP280;36098;48.390;10.856;2022-10-22T07:01:13;96063.09;;;23.46
50206;BMP280;36098;48.390;10.856;2022-10-22T07:03:40;96069.44;;;23.45
50206;BMP280;36098;48.390;10.856;2022-10-22T07:06:10;96082.38;;;23.47
50206;BMP280;36098;48.390;10.856;2022-10-22T07:08:36;96090.25;;;23.42
50206;BMP280;36098;48.390;10.856;2022-10-22T07:11:23;96089.44;;;23.51
50206;BMP280;36098;48.390;10.856;2022-10-22T07:13:48;96096.56;;;23.51
50206;BMP280;36098;48.390;10.856;2022-10-22T07:16:16;96100.03;;;23.36
50206;BMP280;36098;48.390;10.856;2022-10-22T07:18:42;96104.78;;;23.34
50206;BMP280;36098;48.390;10.856;2022-10-22T07:21:08;96095.75;;;23.50
50206;BMP280;36098;48.390;10.856;2022-10-22T07:23:34;96099.38;;;23.64
50206;BMP280;36098;48.390;10.856;2022-10-22T07:26:00;96091.66;;;23.78
50206;BMP280;36098;48.390;10.856;2022-10-22T07:28:26;96100.53;;;23.97
50206;BMP280;36098;48.390;10.856;2022-10-22T07:30:52;96093.75;;;23.86
50206;BMP280;36098;48.390;10.856;2022-10-22T07:33:18;96108.00;;;23.80
50206;BMP280;36098;48.390;10.856;2022-10-22T07:35:43;96093.91;;;23.56
50206;BMP280;36098;48.390;10.856;2022-10-22T07:38:08;96096.78;;;23.54
50206;BMP280;36098;48.390;10.856;2022-10-22T07:40:34;96124.94;;;23.69
50206;BMP280;36098;48.390;10.856;2022-10-22T07:43:00;96128.28;;;23.89
50206;BMP280;36098;48.390;10.856;2022-10-22T07:45:26;96130.38;;;23.92
50206;BMP280;36098;48.390;10.856;2022-10-22T07:47:51;96130.81;;;24.04
50206;BMP280;36098;48.390;10.856;2022-10-22T07:50:17;96151.13;;;24.09
50206;BMP280;36098;48.390;10.856;2022-10-22T07:52:42;96132.41;;;24.05
50206;BMP280;36098;48.390;10.856;2022-10-22T07:55:08;96139.84;;;23.93
50206;BMP280;36098;48.390;10.856;2022-10-22T07:57:33;96136.91;;;24.00
50206;BMP280;36098;48.390;10.856;2022-10-22T07:59:59;96136.41;;;23.39
50206;BMP280;36098;48.390;10.856;2022-10-22T08:02:25;96135.88;;;23.32
50206;BMP280;36098;48.390;10.856;2022-10-22T08:04:50;96149.00;;;23.52
50206;BMP280;36098;48.390;10.856;2022-10-22T08:07:16;96149.72;;;23.63
50206;BMP280;36098;48.390;10.856;2022-10-22T08:09:41;96155.84;;;23.53
50206;BMP280;36098;48.390;10.856;2022-10-22T08:12:07;96153.22;;;23.58
50206;BMP280;36098;48.390;10.856;2022-10-22T08:14:32;96154.94;;;23.83
50206;BMP280;36098;48.390;10.856;2022-10-22T08:16:57;96164.44;;;23.79
50206;BMP280;36098;48.390;10.856;2022-10-22T08:19:23;96167.34;;;23.82
50206;BMP280;36098;48.390;10.856;2022-10-22T08:21:48;96172.66;;;23.67
50206;BMP280;36098;48.390;10.856;2022-10-22T08:24:14;96171.66;;;23.53
50206;BMP280;36098;48.390;10.856;2022-10-22T08:26:40;96172.22;;;23.45
50206;BMP280;36098;48.390;10.856;2022-10-22T08:29:05;96171.41;;;23.45
50206;BMP280;36098;48.390;10.856;2022-10-22T08:31:31;96166.34;;;23.63
50206;BMP280;36098;48.390;10.856;2022-10-22T08:33:56;96167.38;;;23.67
50206;BMP280;36098;48.390;10.856;2022-10-22T08:36:22;96168.41;;;23.76
50206;BMP280;36098;48.390;10.856;2022-10-22T08:38:47;96179.09;;;23.36
50206;BMP280;36098;48.390;10.856;2022-10-22T08:41:15;96181.41;;;23.58
50206;BMP280;36098;48.390;10.856;2022-10-22T08:43:50;96188.50;;;23.62
50206;BMP280;36098;48.390;10.856;2022-10-22T08:48:57;96190.09;;;23.58
50206;BMP280;36098;48.390;10.856;2022-10-22T08:51:29;96194.22;;;23.74
50206;BMP280;36098;48.390;10.856;2022-10-22T08:59:51;96190.53;;;23.75
50206;BMP280;36098;48.390;10.856;2022-10-22T09:02:33;96196.66;;;23.66
50206;BMP280;36098;48.390;10.856;2022-10-22T09:05:20;96200.63;;;23.63
50206;BMP280;36098;48.390;10.856;2022-10-22T09:07:47;96201.16;;;23.55
50206;BMP280;36098;48.390;10.856;2022-10-22T09:10:18;96206.66;;;23.64
50206;BMP280;36098;48.390;10.856;2022-10-22T09:12:46;96209.06;;;23.55
50206;BMP280;36098;48.390;10.856;2022-10-22T09:15:16;96208.56;;;23.58
50206;BMP280;36098;48.390;10.856;2022-10-22T09:18:05;96215.94;;;23.61
50206;BMP280;36098;48.390;10.856;2022-10-22T09:20:43;96214.56;;;23.64
50206;BMP280;36098;48.390;10.856;2022-10-22T09:25:44;96204.59;;;23.61
50206;BMP280;36098;48.390;10.856;2022-10-22T09:28:11;96201.44;;;23.59
50206;BMP280;36098;48.390;10.856;2022-10-22T09:30:37;96212.78;;;23.59
50206;BMP280;36098;48.390;10.856;2022-10-22T09:35:58;96218.09;;;23.39
50206;BMP280;36098;48.390;10.856;2022-10-22T09:38:30;96214.41;;;23.30
50206;BMP280;36098;48.390;10.856;2022-10-22T09:40:57;96220.47;;;23.41
50206;BMP280;36098;48.390;10.856;2022-10-22T09:43:22;96226.50;;;23.46
50206;BMP280;36098;48.390;10.856;2022-10-22T09:45:54;96222.84;;;23.37
50206;BMP280;36098;48.390;10.856;2022-10-22T09:48:26;96226.53;;;23.41
50206;BMP280;36098;48.390;10.856;2022-10-22T09:50:58;96235.44;;;23.55
50206;BMP280;36098;48.390;10.856;2022-10-22T09:53:26;96223.50;;;23.78
50206;BMP280;36098;48.390;10.856;2022-10-22T09:55:58;96235.38;;;23.80
50206;BMP280;36098;48.390;10.856;2022-10-22T09:58:24;96229.38;;;23.60
50206;BMP280;36098;48.390;10.856;2022-10-22T10:00:53;96242.84;;;23.48
50206;BMP280;36098;48.390;10.856;2022-10-22T10:03:22;96243.13;;;23.42
50206;BMP280;36098;48.390;10.856;2022-10-22T10:05:51;96239.69;;;23.36
50206;BMP280;36098;48.390;10.856;2022-10-22T10:08:17;96236.97;;;23.76
50206;BMP280;36098;48.390;10.856;2022-10-22T10:10:57;96241.69;;;23.79
50206;BMP280;36098;48.390;10.856;2022-10-22T10:13:46;96233.56;;;23.66
50206;BMP280;36098;48.390;10.856;2022-10-22T10:19:44;96245.34;;;23.93
50206;BMP280;36098;48.390;10.856;2022-10-22T10:27:39;96242.97;;;23.97
50206;BMP280;36098;48.390;10.856;2022-10-22T10:30:17;96236.25;;;24.24
50206;BMP280;36098;48.390;10.856;2022-10-22T10:33:10;96246.31;;;24.17
50206;BMP280;36098;48.390;10.856;2022-10-22T10:35:48;96252.91;;;24.15
50206;BMP280;36098;48.390;10.856;2022-10-22T10:38:42;96241.13;;;23.97
50206;BMP280;36098;48.390;10.856;2022-10-22T10:41:19;96249.09;;;23.72
50206;BMP280;36098;48.390;10.856;2022-10-22T10:44:30;96247.50;;;23.71
50206;BMP280;36098;48.390;10.856;2022-10-22T10:47:12;96246.78;;;23.56
50206;BMP280;36098;48.390;10.856;2022-10-22T10:49:42;96249.13;;;23.62
50206;BMP280;36098;48.390;10.856;2022-10-22T10:52:11;96245.97;;;23.60
50206;BMP280;36098;48.390;10.856;2022-10-22T11:00:03;96239.75;;;24.10
50206;BMP280;36098;48.390;10.856;2022-10-22T11:08:29;96241.41;;;23.81
50206;BMP280;36098;48.390;10.856;2022-10-22T11:13:46;96247.16;;;24.08
50206;BMP280;36098;48.390;10.856;2022-10-22T11:16:34;96238.91;;;24.14
50206;BMP280;36098;48.390;10.856;2022-10-22T11:21:33;96240.19;;;24.22
50206;BMP280;36098;48.390;10.856;2022-10-22T11:24:11;96239.66;;;24.30
50206;BMP280;36098;48.390;10.856;2022-10-22T11:26:56;96243.09;;;24.25
50206;BMP280;36098;48.390;10.856;2022-10-22T11:29:33;96233.09;;;24.22
50206;BMP280;36098;48.390;10.856;2022-10-22T11:32:04;96244.19;;;24.19
50206;BMP280;36098;48.390;10.856;2022-10-22T11:34:37;96230.41;;;24.27
50206;BMP280;36098;48.390;10.856;2022-10-22T11:37:06;96233.09;;;24.66
50206;BMP280;36098;48.390;10.856;2022-10-22T11:39:42;96231.94;;;24.33
50206;BMP280;36098;48.390;10.856;2022-10-22T11:42:16;96231.53;;;24.11
50206;BMP280;36098;48.390;10.856;2022-10-22T11:44:59;96233.66;;;24.09
50206;BMP280;36098;48.390;10.856;2022-10-22T11:47:33;96226.16;;;24.36
50206;BMP280;36098;48.390;10.856;2022-10-22T11:55:32;96228.59;;;24.66
50206;BMP280;36098;48.390;10.856;2022-10-22T11:58:34;96231.75;;;24.68
50206;BMP280;36098;48.390;10.856;2022-10-22T12:11:36;96214.56;;;24.71
50206;BMP280;36098;48.390;10.856;2022-10-22T12:14:25;96217.44;;;24.74
50206;BMP280;36098;48.390;10.856;2022-10-22T12:19:38;96204.09;;;24.94
50206;BMP280;36098;48.390;10.856;2022-10-22T12:22:16;96209.50;;;25.08
50206;BMP280;36098;48.390;10.856;2022-10-22T12:24:47;96201.47;;;25.17
50206;BMP280;36098;48.390;10.856;2022-10-22T12:27:21;96196.97;;;25.23
50206;BMP280;36098;48.390;10.856;2022-10-22T12:29:47;96202.25;;;25.23
50206;BMP280;36098;48.390;10.856;2022-10-22T12:32:14;96195.84;;;25.29
50206;BMP280;36098;48.390;10.856;2022-10-22T12:34:50;96198.22;;;25.30
50206;BMP280;36098;48.390;10.856;2022-10-22T12:37:17;96185.50;;;25.32
50206;BMP280;36098;48.390;10.856;2022-10-22T12:39:44;96184.09;;;25.40
50206;BMP280;36098;48.390;10.856;2022-10-22T12:42:13;96178.75;;;25.45
50206;BMP280;36098;48.390;10.856;2022-10-22T12:44:39;96176.09;;;25.45
50206;BMP280;36098;48.390;10.856;2022-10-22T12:47:06;96183.47;;;25.48
50206;BMP280;36098;48.390;10.856;2022-10-22T12:49:35;96183.69;;;25.51
50206;BMP280;36098;48.390;10.856;2022-10-22T12:52:04;96183.94;;;25.55
50206;BMP280;36098;48.390;10.856;2022-10-22T12:54:31;96188.66;;;25.58
50206;BMP280;36098;48.390;10.856;2022-10-22T12:56:58;96183.38;;;25.58
50206;BMP280;36098;48.390;10.856;2022-10-22T12:59:26;96183.56;;;25.61
50206;BMP280;36098;48.390;10.856;2022-10-22T13:01:54;96187.53;;;25.64
50206;BMP280;36098;48.390;10.856;2022-10-22T13:09:45;96182.38;;;25.72
50206;BMP280;36098;48.390;10.856;2022-10-22T13:12:12;96183.41;;;25.76
50206;BMP280;36098;48.390;10.856;2022-10-22T13:14:43;96181.47;;;25.82
50206;BMP280;36098;48.390;10.856;2022-10-22T13:17:19;96175.66;;;25.85
50206;BMP280;36098;48.390;10.856;2022-10-22T13:22:35;96174.00;;;25.89
50206;BMP280;36098;48.390;10.856;2022-10-22T13:27:30;96178.19;;;25.95
50206;BMP280;36098;48.390;10.856;2022-10-22T13:29:59;96182.41;;;25.96
50206;BMP280;36098;48.390;10.856;2022-10-22T13:32:32;96180.25;;;25.98
50206;BMP280;36098;48.390;10.856;2022-10-22T13:35:00;96187.63;;;26.01
50206;BMP280;36098;48.390;10.856;2022-10-22T13:37:27;96183.25;;;26.10
50206;BMP280;36098;48.390;10.856;2022-10-22T13:39:54;96178.97;;;26.14
50206;BMP280;36098;48.390;10.856;2022-10-22T13:42:19;96176.75;;;26.21
50206;BMP280;36098;48.390;10.856;2022-10-22T13:44:44;96181.47;;;26.24
50206;BMP280;36098;48.390;10.856;2022-10-22T13:47:27;96178.44;;;26.12
50206;BMP280;36098;48.390;10.856;2022-10-22T13:49:59;96184.47;;;25.99
50206;BMP280;36098;48.390;10.856;2022-10-22T13:52:40;96186.66;;;25.92
50206;BMP280;36098;48.390;10.856;2022-10-22T13:55:25;96185.63;;;25.93
50206;BMP280;36098;48.390;10.856;2022-10-22T13:57:52;96185.63;;;25.93
50206;BMP280;36098;48.390;10.856;2022-10-22T14:00:20;96184.59;;;25.89
50206;BMP280;36098;48.390;10.856;2022-10-22T14:02:48;96186.47;;;25.88
50206;BMP280;36098;48.390;10.856;2022-10-22T14:05:15;96182.81;;;25.84
50206;BMP280;36098;48.390;10.856;2022-10-22T14:07:41;96195.03;;;25.75
50206;BMP280;36098;48.390;10.856;2022-10-22T14:10:21;96186.94;;;25.67
50206;BMP280;36098;48.390;10.856;2022-10-22T14:12:47;96187.00;;;25.62
50206;BMP280;36098;48.390;10.856;2022-10-22T14:15:14;96188.16;;;25.56
50206;BMP280;36098;48.390;10.856;2022-10-22T14:17:43;96184.47;;;25.52
50206;BMP280;36098;48.390;10.856;2022-10-22T14:20:18;96203.56;;;25.49
50206;BMP280;36098;48.390;10.856;2022-10-22T14:22:46;96210.72;;;25.48
50206;BMP280;36098;48.390;10.856;2022-10-22T14:25:14;96198.81;;;25.46
50206;BMP280;36098;48.390;10.856;2022-10-22T14:27:39;96194.91;;;25.43
50206;BMP280;36098;48.390;10.856;2022-10-22T14:30:05;96189.38;;;25.40
50206;BMP280;36098;48.390;10.856;2022-10-22T14:32:30;96197.88;;;25.37
50206;BMP280;36098;48.390;10.856;2022-10-22T14:34:55;96195.25;;;25.37
50206;BMP280;36098;48.390;10.856;2022-10-22T14:37:23;96188.38;;;25.36
50206;BMP280;36098;48.390;10.856;2022-10-22T14:39:48;96206.38;;;25.34
50206;BMP280;36098;48.390;10.856;2022-10-22T14:42:18;96201.59;;;25.36
50206;BMP280;36098;48.390;10.856;2022-10-22T14:44:44;96197.66;;;25.33
50206;BMP280;36098;48.390;10.856;2022-10-22T14:47:10;96204.25;;;25.31
50206;BMP280;36098;48.390;10.856;2022-10-22T14:49:35;96205.84;;;25.32
50206;BMP280;36098;48.390;10.856;2022-10-22T14:52:00;96202.13;;;25.33
50206;BMP280;36098;48.390;10.856;2022-10-22T14:54:26;96212.19;;;25.31
50206;BMP280;36098;48.390;10.856;2022-10-22T14:56:51;96212.00;;;25.27
50206;BMP280;36098;48.390;10.856;2022-10-22T14:59:16;96203.75;;;25.29
50206;BMP280;36098;48.390;10.856;2022-10-22T15:01:42;96214.63;;;25.27
50206;BMP280;36098;48.390;10.856;2022-10-22T15:04:08;96210.41;;;25.26
50206;BMP280;36098;48.390;10.856;2022-10-22T15:06:33;96203.81;;;25.24
50206;BMP280;36098;48.390;10.856;2022-10-22T15:08:58;96213.63;;;25.23
50206;BMP280;36098;48.390;10.856;2022-10-22T15:11:24;96209.66;;;25.21
50206;BMP280;36098;48.390;10.856;2022-10-22T15:13:50;96210.75;;;25.20
50206;BMP280;36098;48.390;10.856;2022-10-22T15:16:15;96220.25;;;25.16
50206;BMP280;36098;48.390;10.856;2022-10-22T15:18:41;96219.75;;;25.14
50206;BMP280;36098;48.390;10.856;2022-10-22T15:21:13;96218.41;;;25.16
50206;BMP280;36098;48.390;10.856;2022-10-22T15:23:39;96217.88;;;25.14
50206;BMP280;36098;48.390;10.856;2022-10-22T15:26:08;96218.16;;;25.13
50206;BMP280;36098;48.390;10.856;2022-10-22T15:28:35;96222.94;;;25.11
50206;BMP280;36098;48.390;10.856;2022-10-22T15:31:01;96221.34;;;25.10
50206;BMP280;36098;48.390;10.856;2022-10-22T15:33:27;96227.19;;;25.07
50206;BMP280;36098;48.390;10.856;2022-10-22T15:35:53;96227.44;;;25.11
50206;BMP280;36098;48.390;10.856;2022-10-22T15:40:44;96226.94;;;25.09